Time;durP1;ratioP1;P1;durP2;ratioP2;P2;SDS_P1;SDS_P2;PMS_P1;PMS_P2;Temp;Humidity;BMP_temperature;BMP_pressure;BME280_temperature;BME280_humidity;BME280_pressure;Samples;Min_cycle;Max_cycle;Signal;HPM_P1;HPM_P2
2022/08/26 00:01:27;;;;;;;11.60;10.40;;;;;;;22.10;80.84;97841.44;4157979;28;20612;-87
2022/08/26 00:03:31;;;;;;;11.90;10.70;;;;;;;22.07;80.32;97833.81;4171490;28;20663;-87
2022/08/26 00:05:35;;;;;;;12.93;11.60;;;;;;;22.05;80.35;97829.69;4172767;28;20627;-86
2022/08/26 00:07:38;;;;;;;11.87;10.77;;;;;;;22.02;80.72;97830.06;4175831;28;20705;-87
2022/08/26 00:09:45;;;;;;;11.90;10.70;;;;;;;21.97;81.00;97822.63;4179058;28;20712;-86
2022/08/26 00:11:49;;;;;;;13.73;12.30;;;;;;;21.97;81.22;97827.94;4158249;28;20747;-87
2022/08/26 00:13:52;;;;;;;12.93;11.67;;;;;;;21.98;80.90;97832.25;4191626;28;20690;-87
2022/08/26 00:15:57;;;;;;;11.90;10.70;;;;;;;21.96;81.08;97828.13;4173340;28;20739;-86
2022/08/26 00:18:00;;;;;;;12.33;10.37;;;;;;;21.94;81.42;97832.78;4169016;28;21022;-86
2022/08/26 00:20:05;;;;;;;11.87;10.67;;;;;;;21.91;81.90;97836.63;4175343;28;20635;-86
2022/08/26 00:22:08;;;;;;;13.43;11.50;;;;;;;21.87;81.41;97832.66;4161405;28;20675;-87
2022/08/26 00:24:13;;;;;;;12.13;10.93;;;;;;;21.86;81.16;97830.19;4173625;28;20626;-87
2022/08/26 00:26:16;;;;;;;12.37;11.17;;;;;;;21.84;82.46;97837.53;4159112;28;20637;-86
2022/08/26 00:28:20;;;;;;;12.50;11.30;;;;;;;21.81;81.46;97837.88;4169676;28;20673;-87
2022/08/26 00:30:25;;;;;;;12.07;10.57;;;;;;;21.81;82.57;97837.88;4173625;28;20607;-86
2022/08/26 00:32:30;;;;;;;12.60;11.30;;;;;;;21.79;81.87;97837.25;4174049;28;21018;-87
2022/08/26 00:34:35;;;;;;;12.50;11.20;;;;;;;21.79;82.39;97832.75;4174581;28;20772;-86
2022/08/26 00:36:38;;;;;;;12.60;11.30;;;;;;;21.78;81.57;97835.59;4167374;28;20681;-86
2022/08/26 00:38:42;;;;;;;12.27;11.07;;;;;;;21.77;82.45;97831.31;4174244;28;20650;-86
2022/08/26 00:40:51;;;;;;;12.53;11.23;;;;;;;21.75;82.80;97838.59;4178137;28;21473;-86
2022/08/26 00:42:55;;;;;;;12.73;11.33;;;;;;;21.73;82.64;97834.50;4169917;28;20667;-87
2022/08/26 00:44:58;;;;;;;12.70;11.50;;;;;;;21.71;82.45;97829.38;4173683;28;21222;-86
2022/08/26 00:47:04;;;;;;;12.43;11.13;;;;;;;21.71;82.15;97831.19;4175256;28;20631;-85
2022/08/26 00:49:13;;;;;;;16.63;11.50;;;;;;;21.68;82.16;97835.03;4172306;28;20635;-85
2022/08/26 00:51:20;;;;;;;12.73;11.20;;;;;;;21.64;83.17;97822.28;4170556;28;20684;-85
2022/08/26 00:53:28;;;;;;;12.80;11.10;;;;;;;21.63;83.01;97829.41;4172321;28;20984;-84
2022/08/26 00:55:33;;;;;;;12.67;11.37;;;;;;;21.61;83.21;97820.81;4176500;28;20625;-85
2022/08/26 00:57:40;;;;;;;12.13;10.93;;;;;;;21.59;82.66;97827.28;4170491;28;20618;-85
2022/08/26 00:59:45;;;;;;;11.67;10.13;;;;;;;21.56;83.27;97825.84;4169953;28;20626;-85
2022/08/26 01:01:48;;;;;;;12.63;10.83;;;;;;;21.54;83.07;97827.00;4177983;28;20626;-85
2022/08/26 01:03:51;;;;;;;12.67;11.37;;;;;;;21.54;83.87;97830.47;4174924;28;20762;-85
2022/08/26 01:05:58;;;;;;;12.90;11.23;;;;;;;21.52;83.17;97827.19;4168061;28;20640;-84
2022/08/26 01:08:01;;;;;;;13.80;11.93;;;;;;;21.49;82.91;97827.56;4170049;28;21067;-85
2022/08/26 01:10:09;;;;;;;13.83;12.17;;;;;;;21.49;82.97;97821.44;4155943;28;20660;-85
2022/08/26 01:12:12;;;;;;;12.93;11.60;;;;;;;21.47;83.83;97828.72;4188905;28;21305;-85
2022/08/26 01:14:16;;;;;;;12.93;11.37;;;;;;;21.45;84.11;97828.91;4177436;28;20673;-85
2022/08/26 01:16:23;;;;;;;13.07;11.67;;;;;;;21.44;83.99;97829.03;4155680;28;20658;-85
2022/08/26 01:18:27;;;;;;;13.63;12.23;;;;;;;21.40;83.75;97828.59;4154357;28;20670;-84
2022/08/26 01:20:35;;;;;;;12.77;11.47;;;;;;;21.38;83.91;97830.59;4173668;28;20664;-85
2022/08/26 01:22:46;;;;;;;12.27;11.07;;;;;;;21.37;84.43;97834.25;4178754;28;20619;-85
2022/08/26 01:24:50;;;;;;;12.93;11.63;;;;;;;21.38;84.15;97830.59;4172985;28;20724;-85
2022/08/26 01:26:58;;;;;;;13.20;11.77;;;;;;;21.37;83.49;97822.81;4177682;28;20744;-85
2022/08/26 01:29:03;;;;;;;13.40;12.00;;;;;;;21.34;83.64;97823.97;4177267;28;21294;-85
2022/08/26 01:31:09;;;;;;;13.40;12.10;;;;;;;21.35;84.53;97827.47;4172723;28;20681;-85
2022/08/26 01:33:19;;;;;;;14.50;12.43;;;;;;;21.32;84.83;97831.31;4169036;28;21162;-85
2022/08/26 01:35:22;;;;;;;14.20;12.70;;;;;;;21.31;84.55;97824.34;4174820;28;20693;-85
2022/08/26 01:37:32;;;;;;;15.47;12.53;;;;;;;21.29;84.18;97823.69;4180923;28;20626;-85
2022/08/26 01:39:36;;;;;;;13.67;11.73;;;;;;;21.28;84.42;97823.88;4170819;28;20627;-84
2022/08/26 01:41:40;;;;;;;15.20;12.40;;;;;;;21.27;84.49;97823.06;4177892;28;20629;-85
2022/08/26 01:43:48;;;;;;;13.20;11.87;;;;;;;21.27;85.63;97823.06;4178058;28;21262;-85
2022/08/26 01:45:53;;;;;;;13.40;12.00;;;;;;;21.25;84.53;97828.72;4173800;28;21000;-85
2022/08/26 01:47:58;;;;;;;14.03;12.63;;;;;;;21.26;84.19;97836.50;4173649;28;20686;-85
2022/08/26 01:50:06;;;;;;;13.30;11.60;;;;;;;21.23;85.07;97830.69;4160310;28;20736;-85
2022/08/26 01:52:12;;;;;;;14.10;12.60;;;;;;;21.22;84.69;97827.22;4177286;28;21236;-85
2022/08/26 01:54:15;;;;;;;13.23;11.83;;;;;;;21.20;85.65;97826.59;4174074;28;20618;-85
2022/08/26 01:56:25;;;;;;;13.50;11.93;;;;;;;21.19;84.83;97835.56;4178927;28;20628;-85
2022/08/26 01:58:41;;;;;;;13.87;12.47;;;;;;;21.17;84.91;97831.41;4177884;28;20710;-85
2022/08/26 02:00:45;;;;;;;13.13;11.83;;;;;;;21.16;85.44;97827.94;4185548;28;20614;-85
2022/08/26 02:02:50;;;;;;;14.80;12.50;;;;;;;21.15;85.70;97828.13;4174380;28;20643;-85
2022/08/26 02:04:58;;;;;;;14.47;12.97;;;;;;;21.14;85.50;97829.94;4177616;28;20610;-85
2022/08/26 02:07:04;;;;;;;17.57;12.60;;;;;;;21.13;84.99;97827.47;4173762;28;20625;-85
2022/08/26 02:09:07;;;;;;;13.90;12.53;;;;;;;21.10;84.90;97836.59;4174877;28;20670;-85
2022/08/26 02:11:10;;;;;;;13.87;12.37;;;;;;;21.07;85.59;97825.53;4173199;28;20627;-84
2022/08/26 02:13:15;;;;;;;14.73;13.33;;;;;;;21.05;85.23;97832.81;4166374;28;20632;-85
2022/08/26 02:15:18;;;;;;;14.40;12.67;;;;;;;21.04;86.04;97834.66;4176662;28;20632;-85
2022/08/26 02:17:25;;;;;;;13.87;12.37;;;;;;;21.03;86.34;97834.81;4168889;28;20631;-85
2022/08/26 02:19:31;;;;;;;13.47;12.07;;;;;;;20.99;86.60;97836.19;4179255;28;20717;-85
2022/08/26 02:21:34;;;;;;;14.67;13.27;;;;;;;20.95;85.22;97834.88;4177720;28;20791;-85
2022/08/26 02:23:39;;;;;;;13.60;12.30;;;;;;;20.92;85.78;97841.34;4180349;28;20741;-85
2022/08/26 02:25:48;;;;;;;14.10;12.30;;;;;;;20.89;85.66;97838.22;4179181;28;21192;-85
2022/08/26 02:27:51;;;;;;;13.77;12.40;;;;;;;20.86;86.24;97833.28;4174878;28;20629;-85
2022/08/26 02:29:57;;;;;;;14.40;12.60;;;;;;;20.83;85.73;97838.91;4180207;28;20696;-84
2022/08/26 02:32:01;;;;;;;14.10;12.50;;;;;;;20.81;85.86;97839.09;4175762;28;20623;-85
2022/08/26 02:34:08;;;;;;;15.03;13.43;;;;;;;20.82;86.79;97842.56;4162369;28;20685;-84
2022/08/26 02:36:12;;;;;;;14.63;13.10;;;;;;;20.81;86.76;97839.09;4176508;28;20628;-85
2022/08/26 02:38:17;;;;;;;14.30;12.80;;;;;;;20.82;85.41;97839.91;4172228;28;21026;-85
2022/08/26 02:40:23;;;;;;;14.77;13.27;;;;;;;20.78;85.53;97840.44;4176754;28;20679;-85
2022/08/26 02:42:27;;;;;;;14.63;13.13;;;;;;;20.70;86.17;97835.19;4171601;28;20635;-85
2022/08/26 02:44:30;;;;;;;13.43;12.10;;;;;;;20.62;86.33;97833.34;4175481;28;21386;-84
2022/08/26 02:46:37;;;;;;;15.60;13.50;;;;;;;20.57;85.10;97833.06;4177067;28;20729;-85
2022/08/26 02:48:41;;;;;;;15.33;12.77;;;;;;;20.53;85.31;97830.94;4177223;28;21206;-85
2022/08/26 02:50:44;;;;;;;12.83;11.53;;;;;;;20.50;86.31;97832.09;4174328;28;20659;-85
2022/08/26 02:52:48;;;;;;;18.07;12.00;;;;;;;20.50;85.49;97833.91;4175327;28;20696;-84
2022/08/26 02:54:52;;;;;;;15.10;11.57;;;;;;;20.46;85.37;97836.09;4173186;28;20686;-84
2022/08/26 02:56:55;;;;;;;14.20;12.80;;;;;;;20.45;86.69;97828.31;4174378;28;20621;-85
2022/08/26 02:58:59;;;;;;;13.47;12.13;;;;;;;20.41;85.67;97829.66;4177843;28;20625;-84
2022/08/26 03:01:02;;;;;;;14.03;12.53;;;;;;;20.35;87.00;97825.84;4175613;28;20622;-84
2022/08/26 03:03:08;;;;;;;14.73;13.13;;;;;;;20.32;85.67;97826.19;4172124;28;20720;-85
2022/08/26 03:05:12;;;;;;;14.13;12.43;;;;;;;20.32;87.44;97823.53;4175397;28;20654;-85
2022/08/26 03:07:15;;;;;;;15.30;13.20;;;;;;;20.31;87.47;97833.50;4172642;28;20626;-84
2022/08/26 03:09:18;;;;;;;15.27;13.77;;;;;;;20.31;86.75;97833.50;4179340;28;20983;-85
2022/08/26 03:11:22;;;;;;;15.10;13.50;;;;;;;20.29;88.10;97831.00;4176718;28;20640;-85
2022/08/26 03:13:26;;;;;;;13.83;12.43;;;;;;;20.29;87.35;97836.31;4205331;28;21203;-84
2022/08/26 03:15:29;;;;;;;15.57;13.40;;;;;;;20.29;87.11;97835.50;4172655;28;20626;-85
2022/08/26 03:17:32;;;;;;;15.20;12.83;;;;;;;20.29;88.49;97833.66;4162514;28;21387;-85
2022/08/26 03:19:39;;;;;;;15.30;13.23;;;;;;;20.27;87.73;97830.38;4171315;28;20623;-85
2022/08/26 03:21:43;;;;;;;14.63;13.10;;;;;;;20.27;89.06;97824.25;4176768;28;20621;-84
2022/08/26 03:23:49;;;;;;;15.80;13.73;;;;;;;20.28;88.18;97824.06;4175191;28;20724;-84
2022/08/26 03:25:53;;;;;;;16.43;14.73;;;;;;;20.31;87.99;97826.34;4175581;28;21252;-85
2022/08/26 03:27:56;;;;;;;15.70;13.90;;;;;;;20.31;87.52;97829.00;4174183;28;20664;-85
2022/08/26 03:32:22;;;;;;;16.57;14.33;;;;;;;20.31;88.54;97830.84;4170703;28;21018;-84
2022/08/26 03:34:28;;;;;;;16.33;14.63;;;;;;;20.27;87.84;97826.91;4171548;28;20720;-85
2022/08/26 03:36:33;;;;;;;15.60;14.00;;;;;;;20.21;88.42;97822.28;4174263;28;21045;-85
2022/08/26 03:38:37;;;;;;;16.07;13.70;;;;;;;20.14;88.63;97830.06;4178888;28;20974;-85
2022/08/26 03:40:42;;;;;;;17.33;13.40;;;;;;;20.11;88.32;97824.28;4176281;28;21211;-84
2022/08/26 03:42:45;;;;;;;15.77;14.20;;;;;;;20.05;89.00;97815.19;4171747;28;21254;-85
2022/08/26 03:44:48;;;;;;;15.83;14.20;;;;;;;20.04;88.19;97820.66;4175027;28;20658;-85
2022/08/26 03:46:52;;;;;;;16.67;14.23;;;;;;;20.02;88.71;97820.81;4153082;28;20684;-84
2022/08/26 03:48:56;;;;;;;18.30;14.60;;;;;;;20.01;89.15;97819.19;4166217;28;20649;-85
2022/08/26 03:50:59;;;;;;;18.00;14.63;;;;;;;19.98;89.20;97821.31;4172905;28;20622;-84
2022/08/26 03:53:06;;;;;;;16.10;14.40;;;;;;;19.95;88.35;97819.00;4172223;28;20738;-85
2022/08/26 03:55:16;;;;;;;17.27;13.80;;;;;;;19.92;89.39;97814.06;4161578;28;20661;-85
2022/08/26 03:57:19;;;;;;;17.23;15.43;;;;;;;19.91;89.51;97817.72;4159094;28;21167;-85
2022/08/26 03:59:24;;;;;;;16.10;14.40;;;;;;;19.93;89.95;97816.53;4175704;28;20728;-84
2022/08/26 04:01:28;;;;;;;16.07;14.00;;;;;;;19.93;89.52;97818.38;4175359;28;20637;-85
2022/08/26 04:05:53;;;;;;;17.33;14.50;;;;;;;19.99;88.71;97826.44;4171656;28;20661;-85
2022/08/26 04:07:56;;;;;;;18.47;14.23;;;;;;;19.99;88.74;97821.16;4171127;28;20673;-85
2022/08/26 04:10:01;;;;;;;17.47;14.97;;;;;;;19.97;89.48;97817.03;4162239;28;20668;-85
2022/08/26 04:12:05;;;;;;;15.73;14.13;;;;;;;19.98;89.75;97814.22;4156930;28;20661;-85
2022/08/26 04:14:09;;;;;;;17.00;14.40;;;;;;;19.96;88.83;97824.16;4174695;28;20633;-84
2022/08/26 04:16:12;;;;;;;18.90;14.90;;;;;;;19.96;89.29;97820.69;4154535;28;20623;-84
2022/08/26 04:18:16;;;;;;;16.87;14.00;;;;;;;19.95;90.48;97824.31;4173615;28;20743;-85
2022/08/26 04:20:19;;;;;;;18.17;15.20;;;;;;;19.94;89.26;97822.69;4170068;28;20630;-85
2022/08/26 04:22:22;;;;;;;16.40;14.70;;;;;;;19.92;90.04;97819.34;4161641;28;21168;-85
2022/08/26 04:24:27;;;;;;;17.00;15.17;;;;;;;19.94;90.53;97825.31;4160409;28;20748;-85
2022/08/26 04:26:35;;;;;;;18.67;15.67;;;;;;;19.92;89.21;97819.34;4177611;28;20667;-85
2022/08/26 04:28:41;;;;;;;16.53;14.80;;;;;;;19.92;89.11;97814.06;4175734;28;20639;-84
2022/08/26 04:30:44;;;;;;;17.20;14.83;;;;;;;19.91;88.96;97817.72;4174750;28;20625;-85
2022/08/26 04:32:47;;;;;;;19.07;15.77;;;;;;;19.92;90.48;97822.00;4172943;28;20683;-84
2022/08/26 04:34:50;;;;;;;18.80;16.07;;;;;;;19.92;90.74;97816.72;4173743;28;20751;-85
2022/08/26 04:36:54;;;;;;;17.10;15.30;;;;;;;19.95;88.80;97819.88;4167750;28;20669;-85
2022/08/26 04:39:00;;;;;;;17.70;15.03;;;;;;;19.97;89.15;97825.00;4171165;28;20625;-85
2022/08/26 04:41:04;;;;;;;17.77;15.70;;;;;;;19.96;89.94;97821.50;4169362;28;20621;-85
2022/08/26 04:43:18;;;;;;;22.13;15.20;;;;;;;19.97;89.93;97822.34;4169632;28;20635;-84
2022/08/26 04:45:22;;;;;;;18.00;16.10;;;;;;;19.96;88.99;97821.50;4175100;28;20652;-85
2022/08/26 04:47:25;;;;;;;17.43;15.63;;;;;;;19.99;90.58;97825.63;4178099;28;20678;-85
2022/08/26 04:49:34;;;;;;;18.20;16.00;;;;;;;20.00;90.25;97822.00;4174367;28;20608;-84
2022/08/26 04:51:37;;;;;;;21.93;16.30;;;;;;;20.01;90.08;97828.94;4174303;28;21257;-85
2022/08/26 04:53:40;;;;;;;19.97;16.90;;;;;;;20.04;89.63;97833.88;4174118;28;20636;-84
2022/08/26 04:55:43;;;;;;;19.90;16.40;;;;;;;20.07;90.80;97836.19;4175385;28;20648;-86
2022/08/26 04:57:50;;;;;;;18.47;16.20;;;;;;;20.12;90.41;97841.84;4176018;28;20632;-85
2022/08/26 04:59:54;;;;;;;17.83;16.03;;;;;;;20.17;90.81;97836.84;4170494;28;21038;-85
2022/08/26 05:01:58;;;;;;;19.50;16.40;;;;;;;20.21;89.57;97833.69;4161044;28;20645;-86
2022/08/26 05:04:02;;;;;;;22.00;16.53;;;;;;;20.26;90.51;97841.13;4153585;28;20624;-85
2022/08/26 05:06:11;;;;;;;20.53;16.50;;;;;;;20.27;90.39;97838.31;4168175;28;20683;-85
2022/08/26 05:08:14;;;;;;;22.50;16.97;;;;;;;20.31;89.94;97841.44;4173433;28;20711;-85
2022/08/26 05:10:18;;;;;;;18.53;16.40;;;;;;;20.35;90.61;97835.63;4168193;28;20622;-85
2022/08/26 05:12:22;;;;;;;20.47;15.77;;;;;;;20.37;89.14;97847.72;4171009;28;20636;-85
2022/08/26 05:14:25;;;;;;;22.00;17.23;;;;;;;20.42;88.82;97840.06;4181015;28;20702;-85
2022/08/26 05:16:30;;;;;;;19.50;16.43;;;;;;;20.53;89.58;97838.88;4170058;28;20674;-85
2022/08/26 05:18:34;;;;;;;21.17;18.30;;;;;;;20.67;89.66;97844.28;4170432;28;20639;-87
2022/08/26 05:20:39;;;;;;;19.17;16.20;;;;;;;20.82;87.67;97842.56;4175961;28;20630;-87
2022/08/26 05:22:42;;;;;;;21.10;16.67;;;;;;;20.96;88.02;97841.84;4149663;28;20713;-85
2022/08/26 05:24:46;;;;;;;19.90;17.40;;;;;;;21.09;86.61;97844.72;4165248;28;20622;-85
2022/08/26 05:26:49;;;;;;;19.50;16.60;;;;;;;21.20;85.56;97846.97;4175234;28;20652;-85
2022/08/26 05:28:53;;;;;;;20.30;18.10;;;;;;;21.27;86.00;97848.75;4175167;28;20641;-85
2022/08/26 05:30:57;;;;;;;19.20;16.30;;;;;;;21.35;84.82;97851.38;4174564;28;20656;-85
2022/08/26 05:33:02;;;;;;;20.30;16.53;;;;;;;21.46;85.16;97856.28;4171506;28;20629;-85
2022/08/26 05:35:06;;;;;;;20.00;17.30;;;;;;;21.61;86.15;97857.97;4176904;28;20671;-85
2022/08/26 05:37:10;;;;;;;22.30;16.23;;;;;;;21.78;84.20;97857.69;4175967;28;20608;-85
2022/08/26 05:39:16;;;;;;;18.30;16.30;;;;;;;21.91;83.71;97857.06;4172823;28;20639;-85
2022/08/26 05:41:23;;;;;;;19.53;17.50;;;;;;;22.07;84.08;97855.09;4175025;28;20622;-86
2022/08/26 05:43:26;;;;;;;18.13;16.13;;;;;;;22.27;84.09;97858.88;4175939;28;20618;-85
2022/08/26 05:45:31;;;;;;;17.63;15.83;;;;;;;22.47;83.89;97865.31;4155383;28;20693;-85
2022/08/26 05:47:34;;;;;;;17.57;15.33;;;;;;;22.67;83.44;97867.19;4173441;28;20667;-85
2022/08/26 05:49:39;;;;;;;17.83;16.03;;;;;;;22.84;82.92;97861.50;4174396;28;20673;-86
2022/08/26 05:51:53;;;;;;;20.20;16.20;;;;;;;23.05;83.41;97866.06;4158209;28;20722;-85
2022/08/26 05:53:56;;;;;;;19.07;15.90;;;;;;;23.18;82.05;97874.22;4176940;28;21159;-85
2022/08/26 05:56:00;;;;;;;17.63;14.83;;;;;;;23.30;82.15;97876.19;4177160;28;20664;-85
2022/08/26 05:58:03;;;;;;;20.17;15.63;;;;;;;23.46;80.30;97875.97;4169888;28;20646;-86
2022/08/26 06:00:08;;;;;;;18.70;15.00;;;;;;;23.63;79.88;97872.03;4177143;28;20636;-85
2022/08/26 06:02:14;;;;;;;18.03;16.03;;;;;;;23.81;79.13;97875.91;4171517;28;20627;-85
2022/08/26 06:04:17;;;;;;;16.77;15.00;;;;;;;23.84;78.90;97867.53;4176642;28;20666;-85
2022/08/26 06:06:25;;;;;;;18.63;14.80;;;;;;;23.82;78.57;97869.59;4159259;28;21025;-85
2022/08/26 06:08:30;;;;;;;14.90;13.37;;;;;;;23.92;79.39;97880.72;4175537;28;20689;-86
2022/08/26 06:10:34;;;;;;;16.67;14.90;;;;;;;24.08;78.08;97883.94;4160505;28;20731;-85
2022/08/26 06:12:37;;;;;;;19.50;14.77;;;;;;;24.28;78.28;97888.41;4176331;28;20689;-86
2022/08/26 06:14:40;;;;;;;20.23;16.13;;;;;;;24.38;76.97;97883.56;4176702;28;20634;-85
2022/08/26 06:16:43;;;;;;;16.87;14.90;;;;;;;24.39;78.01;97890.56;4171265;28;20661;-85
2022/08/26 06:18:47;;;;;;;16.90;14.97;;;;;;;24.34;77.62;97878.81;4172753;28;21250;-85
2022/08/26 06:20:51;;;;;;;21.10;15.90;;;;;;;24.27;77.51;97884.09;4193892;28;20657;-85
2022/08/26 06:25:38;;;;;;;18.70;15.90;;;;;;;24.17;78.28;97882.78;4172841;28;20634;-86
2022/08/26 06:27:41;;;;;;;17.10;14.90;;;;;;;24.15;78.50;97892.00;4179707;28;20621;-85
2022/08/26 06:29:45;;;;;;;17.47;15.47;;;;;;;24.15;77.92;97889.34;4152229;28;20687;-85
2022/08/26 06:31:49;;;;;;;18.73;15.73;;;;;;;24.16;77.80;97891.81;4174301;28;20627;-85
2022/08/26 06:33:53;;;;;;;18.37;16.37;;;;;;;24.16;77.94;97889.16;4177128;28;20632;-85
2022/08/26 06:35:57;;;;;;;19.90;16.13;;;;;;;24.15;77.49;97889.34;4169969;28;20646;-85
2022/08/26 06:38:02;;;;;;;20.50;15.80;;;;;;;24.17;78.52;97890.78;4179585;28;20641;-85
2022/08/26 06:40:06;;;;;;;19.00;16.60;;;;;;;24.20;78.31;97885.88;4163161;28;21119;-86
2022/08/26 06:42:09;;;;;;;17.60;15.80;;;;;;;24.25;77.89;97885.28;4176126;28;21077;-86
2022/08/26 06:44:14;;;;;;;19.60;17.07;;;;;;;24.36;78.22;97895.47;4173237;28;20631;-85
2022/08/26 06:46:20;;;;;;;22.97;16.60;;;;;;;24.45;78.30;97888.97;4171087;28;20737;-85
2022/08/26 06:48:23;;;;;;;20.43;15.40;;;;;;;24.57;77.84;97892.72;4165102;28;21500;-85
2022/08/26 06:50:28;;;;;;;16.97;15.17;;;;;;;24.67;77.57;97894.00;4163360;28;20637;-86
2022/08/26 06:52:31;;;;;;;21.77;15.30;;;;;;;24.84;77.14;97895.34;4168868;28;20669;-85
2022/08/26 06:54:41;;;;;;;17.93;15.97;;;;;;;24.95;77.71;97895.59;4156470;28;20663;-85
2022/08/26 06:56:44;;;;;;;18.40;15.10;;;;;;;25.09;76.97;97893.84;4179013;28;20627;-86
2022/08/26 06:58:50;;;;;;;17.17;15.23;;;;;;;25.24;76.66;97898.84;4172088;28;20666;-85
2022/08/26 07:00:53;;;;;;;21.50;15.30;;;;;;;25.36;75.83;97897.22;4156087;28;20631;-86
2022/08/26 07:02:56;;;;;;;19.37;14.80;;;;;;;25.44;75.64;97891.72;4175212;28;20637;-86
2022/08/26 07:04:59;;;;;;;17.37;15.50;;;;;;;25.62;75.56;97903.47;4172154;28;20689;-85
2022/08/26 07:07:02;;;;;;;26.33;16.07;;;;;;;25.82;75.19;97899.00;4172051;28;20663;-86
2022/08/26 07:09:07;;;;;;;21.20;14.37;;;;;;;26.01;73.97;97900.03;4171617;28;20667;-85
2022/08/26 07:11:13;;;;;;;18.73;16.03;;;;;;;26.20;73.66;97892.84;4175071;28;20638;-85
2022/08/26 07:13:17;;;;;;;24.37;14.70;;;;;;;26.46;73.26;97900.06;4156337;28;20695;-86
2022/08/26 07:15:34;;;;;;;17.03;14.00;;;;;;;26.68;73.14;97896.94;4158790;28;21072;-85
2022/08/26 07:17:37;;;;;;;20.87;14.57;;;;;;;26.90;71.89;97907.22;4174950;28;20626;-85
2022/08/26 07:19:42;;;;;;;18.13;14.40;;;;;;;27.15;71.32;97908.13;4175249;28;20712;-86
2022/08/26 07:21:45;;;;;;;19.90;13.53;;;;;;;27.39;71.91;97910.91;4175607;28;20633;-85
2022/08/26 07:23:51;;;;;;;16.47;13.17;;;;;;;27.58;69.96;97910.84;4177828;28;20814;-86
2022/08/26 07:26:00;;;;;;;25.13;12.87;;;;;;;27.78;70.46;97911.53;4166215;28;20642;-86
2022/08/26 07:28:04;;;;;;;17.30;13.10;;;;;;;27.95;70.32;97907.31;4185717;28;20710;-85
2022/08/26 07:30:10;;;;;;;16.80;13.50;;;;;;;28.18;69.81;97904.91;4161603;28;20695;-85
2022/08/26 07:32:19;;;;;;;16.10;13.50;;;;;;;28.43;68.36;97908.38;4174934;28;20682;-85
2022/08/26 07:34:24;;;;;;;19.83;13.73;;;;;;;28.63;67.79;97912.56;4179869;28;20617;-85
2022/08/26 07:36:29;;;;;;;18.30;13.27;;;;;;;28.77;67.97;97906.03;4170419;28;20644;-86
2022/08/26 07:38:32;;;;;;;19.60;12.27;;;;;;;28.95;67.00;97914.09;4177633;28;20629;-86
2022/08/26 07:40:36;;;;;;;18.30;12.80;;;;;;;29.05;67.54;97910.66;4162487;28;20633;-86
2022/08/26 07:42:39;;;;;;;20.03;13.10;;;;;;;29.21;67.43;97910.06;4167134;28;20699;-85
2022/08/26 07:44:45;;;;;;;15.70;12.63;;;;;;;29.38;67.13;97911.13;4171812;28;21401;-86
2022/08/26 07:46:48;;;;;;;16.17;12.53;;;;;;;29.62;66.59;97912.88;4162275;28;20659;-85
2022/08/26 07:48:55;;;;;;;23.27;13.20;;;;;;;29.77;65.91;97910.56;4174344;28;20635;-85
2022/08/26 07:50:58;;;;;;;17.13;12.20;;;;;;;29.96;66.80;97913.00;4172173;28;21159;-85
2022/08/26 07:53:02;;;;;;;20.87;12.93;;;;;;;30.15;65.45;97909.19;4168192;28;20633;-85
2022/08/26 07:55:08;;;;;;;22.80;13.17;;;;;;;30.27;65.51;97913.53;4172944;28;20605;-85
2022/08/26 07:57:11;;;;;;;15.80;12.70;;;;;;;30.40;65.46;97907.97;4173890;28;20651;-85
2022/08/26 07:59:15;;;;;;;15.57;12.53;;;;;;;30.53;64.61;97907.75;4157184;28;20724;-85
2022/08/26 08:01:20;;;;;;;17.93;13.43;;;;;;;30.63;63.52;97902.59;4170726;28;20732;-86
2022/08/26 08:03:23;;;;;;;21.90;13.03;;;;;;;30.70;64.67;97904.13;4172319;28;20652;-85
2022/08/26 08:05:29;;;;;;;19.07;12.70;;;;;;;30.83;63.49;97909.25;4173907;28;20619;-85
2022/08/26 08:07:35;;;;;;;18.70;13.37;;;;;;;30.90;63.67;97906.47;4168889;28;20669;-85
2022/08/26 08:09:48;;;;;;;16.30;12.17;;;;;;;30.91;62.80;97908.09;4174961;28;20621;-85
2022/08/26 08:11:52;;;;;;;16.70;12.27;;;;;;;30.92;63.04;97897.91;4174656;28;20627;-85
2022/08/26 08:13:55;;;;;;;17.10;12.30;;;;;;;31.05;63.26;97903.06;4173546;28;20671;-85
2022/08/26 08:15:59;;;;;;;18.77;12.87;;;;;;;31.22;62.89;97898.56;4174070;28;20642;-85
2022/08/26 08:18:05;;;;;;;17.30;11.87;;;;;;;31.30;63.26;97905.44;4175426;28;21179;-86
2022/08/26 08:20:17;;;;;;;18.57;12.20;;;;;;;31.41;62.18;97898.19;4177495;28;21092;-86
2022/08/26 08:22:22;;;;;;;16.07;11.80;;;;;;;31.50;63.12;97899.44;4176299;28;20657;-86
2022/08/26 08:24:26;;;;;;;13.83;11.67;;;;;;;31.62;62.18;97897.50;4172399;28;20677;-85
2022/08/26 08:26:29;;;;;;;16.70;12.27;;;;;;;31.64;62.89;97891.88;4174326;28;20669;-85
2022/08/26 08:28:33;;;;;;;14.53;12.07;;;;;;;31.75;61.50;97899.09;4171304;28;20664;-85
2022/08/26 08:30:38;;;;;;;12.87;11.60;;;;;;;31.79;61.56;97890.28;4175374;28;20681;-85
2022/08/26 08:32:43;;;;;;;16.07;12.50;;;;;;;31.91;61.84;97882.94;4175730;28;20652;-86
2022/08/26 08:34:47;;;;;;;16.53;11.83;;;;;;;32.04;60.54;97888.88;4177214;28;20625;-86
2022/08/26 08:36:51;;;;;;;14.23;11.47;;;;;;;32.21;61.39;97888.88;4168939;28;20625;-86
2022/08/26 08:38:55;;;;;;;19.33;12.20;;;;;;;32.33;61.24;97893.16;4177865;28;20643;-86
2022/08/26 08:41:00;;;;;;;16.83;12.77;;;;;;;32.37;60.63;97883.47;4169208;28;20621;-86
2022/08/26 08:43:10;;;;;;;17.93;12.77;;;;;;;32.47;60.86;97889.88;4171572;28;20639;-86
2022/08/26 08:45:15;;;;;;;16.80;11.90;;;;;;;32.57;59.90;97879.22;4175024;28;20620;-85
2022/08/26 08:47:30;;;;;;;18.90;13.17;;;;;;;32.58;59.83;97880.03;4172460;28;20633;-86
2022/08/26 08:49:34;;;;;;;15.13;11.43;;;;;;;32.56;59.31;97883.00;4169705;28;20661;-86
2022/08/26 08:51:44;;;;;;;22.80;12.60;;;;;;;32.60;60.06;97884.16;4161116;28;21200;-85
2022/08/26 08:53:50;;;;;;;15.50;12.30;;;;;;;32.72;59.59;97886.75;4173824;28;21066;-87
2022/08/26 08:56:07;;;;;;;18.73;12.60;;;;;;;32.70;58.74;97873.50;4177588;28;20628;-85
2022/08/26 08:58:15;;;;;;;15.93;11.57;;;;;;;32.68;58.50;97874.78;4158981;28;21192;-85
2022/08/26 09:00:23;;;;;;;22.83;12.50;;;;;;;32.60;58.23;97864.41;4166898;28;20617;-85
2022/08/26 09:02:35;;;;;;;18.90;12.80;;;;;;;32.56;59.10;97866.78;4170577;28;21029;-85
2022/08/26 09:05:01;;;;;;;17.70;11.90;;;;;;;32.77;60.45;97862.50;4177001;28;20631;-85
2022/08/26 09:07:09;;;;;;;18.83;11.50;;;;;;;32.55;59.66;97858.91;4170005;28;20644;-86
2022/08/26 09:09:19;;;;;;;16.20;11.73;;;;;;;32.03;60.18;97856.72;4172621;28;20713;-86
2022/08/26 09:11:22;;;;;;;15.77;11.23;;;;;;;31.67;59.41;97850.91;4190375;28;20651;-86
2022/08/26 09:13:26;;;;;;;16.13;11.20;;;;;;;31.63;61.36;97855.16;4170508;28;20631;-85
2022/08/26 09:15:36;;;;;;;17.10;11.50;;;;;;;31.48;60.66;97854.84;4172610;28;21188;-86
2022/08/26 09:17:46;;;;;;;18.10;11.93;;;;;;;31.33;59.78;97862.63;4203859;28;20639;-86
2022/08/26 09:19:53;;;;;;;20.10;12.07;;;;;;;31.20;60.28;97862.06;4177576;28;20723;-85
2022/08/26 09:21:56;;;;;;;18.00;12.10;;;;;;;31.07;60.61;97847.00;4160445;28;20630;-86
2022/08/26 09:24:00;;;;;;;14.60;10.87;;;;;;;31.01;61.77;97847.16;4173815;28;20978;-85
2022/08/26 09:26:16;;;;;;;22.10;11.20;;;;;;;30.93;61.26;97840.25;4160087;28;20637;-86
2022/08/26 09:28:21;;;;;;;14.13;10.47;;;;;;;30.89;61.88;97843.66;4172931;28;21295;-86
2022/08/26 09:30:26;;;;;;;16.53;11.30;;;;;;;30.82;61.50;97837.53;4177715;28;20636;-86
2022/08/26 09:32:30;;;;;;;15.17;11.50;;;;;;;30.76;61.56;97827.72;4170884;28;20670;-86
2022/08/26 09:34:34;;;;;;;18.63;11.30;;;;;;;30.73;61.95;97830.06;4174903;28;20727;-85
2022/08/26 09:36:39;;;;;;;14.40;10.97;;;;;;;30.70;61.84;97827.84;4161270;28;20637;-86
2022/08/26 09:38:43;;;;;;;15.07;10.90;;;;;;;30.65;61.31;97823.16;4175453;28;20685;-85
2022/08/26 09:40:58;;;;;;;16.43;11.73;;;;;;;30.63;62.22;97827.97;4170957;28;21171;-86
2022/08/26 09:43:16;;;;;;;16.07;11.07;;;;;;;30.63;62.12;97819.06;4168871;28;20694;-85